createdAt,value
2018-10-03T00:00:59.957Z,3.90
2018-10-03T00:03:27.768Z,5.03
2018-10-03T00:05:55.701Z,5.07
2018-10-03T00:08:23.537Z,3.43
2018-10-03T00:10:51.437Z,3.00
2018-10-03T00:13:19.329Z,3.33
2018-10-03T00:15:47.258Z,3.73
2018-10-03T00:18:15.074Z,3.50
2018-10-03T00:20:42.975Z,3.70
2018-10-03T00:23:10.869Z,3.90
2018-10-03T00:25:38.737Z,3.37
2018-10-03T00:28:06.568Z,3.33
2018-10-03T00:30:34.434Z,4.40
2018-10-03T00:33:02.301Z,3.50
2018-10-03T00:35:30.164Z,3.40
2018-10-03T00:37:58.008Z,3.73
2018-10-03T00:40:25.933Z,3.33
2018-10-03T00:42:53.852Z,4.13
2018-10-03T00:45:22.765Z,3.30
2018-10-03T00:47:50.633Z,3.53
2018-10-03T00:50:18.521Z,2.40
2018-10-03T00:52:46.372Z,2.87
2018-10-03T00:55:14.238Z,3.27
2018-10-03T00:57:42.129Z,3.37
2018-10-03T01:00:09.980Z,3.40
2018-10-03T01:02:37.816Z,3.57
2018-10-03T01:05:05.820Z,3.17
2018-10-03T01:07:33.681Z,3.53
2018-10-03T01:10:01.570Z,3.20
2018-10-03T01:12:29.441Z,2.90
2018-10-03T01:14:57.274Z,3.20
2018-10-03T01:17:25.233Z,3.30
2018-10-03T01:19:53.080Z,3.90
2018-10-03T01:22:21.005Z,2.73
2018-10-03T01:24:48.841Z,3.73
2018-10-03T01:27:16.680Z,2.97
2018-10-03T01:29:44.601Z,3.73
2018-10-03T01:32:12.498Z,3.57
2018-10-03T01:34:40.441Z,3.07
2018-10-03T01:37:08.264Z,3.27
2018-10-03T01:39:36.109Z,3.10
2018-10-03T01:42:04.044Z,4.10
2018-10-03T01:44:31.948Z,3.50
2018-10-03T01:46:59.824Z,4.30
2018-10-03T01:49:27.693Z,3.30
2018-10-03T01:51:55.564Z,3.80
2018-10-03T01:54:23.437Z,3.10
2018-10-03T01:56:51.322Z,3.37
2018-10-03T01:59:19.238Z,3.73
2018-10-03T02:01:47.150Z,3.63
2018-10-03T02:04:14.992Z,3.10
2018-10-03T02:06:42.889Z,2.87
2018-10-03T02:09:10.748Z,3.07
2018-10-03T02:11:38.601Z,3.30
2018-10-03T02:14:06.473Z,2.77
2018-10-03T02:16:34.357Z,3.57
2018-10-03T02:19:02.241Z,3.77
2018-10-03T02:21:30.129Z,2.83
2018-10-03T02:23:58.948Z,2.67
2018-10-03T02:26:27.034Z,3.20
2018-10-03T02:28:54.910Z,3.43
2018-10-03T02:31:22.809Z,2.80
2018-10-03T02:33:50.746Z,2.90
2018-10-03T02:36:18.638Z,2.50
2018-10-03T02:38:46.485Z,2.80
2018-10-03T02:41:14.336Z,2.80
2018-10-03T02:43:42.417Z,2.77
2018-10-03T02:46:10.302Z,2.57
2018-10-03T02:48:38.162Z,2.63
2018-10-03T02:51:06.069Z,3.10
2018-10-03T02:53:34.009Z,2.30
2018-10-03T02:56:01.889Z,2.90
2018-10-03T02:58:29.812Z,3.27
2018-10-03T03:00:57.673Z,3.00
2018-10-03T03:03:25.525Z,3.30
2018-10-03T03:05:53.424Z,2.77
2018-10-03T03:08:21.301Z,3.10
2018-10-03T03:10:49.220Z,3.20
2018-10-03T03:13:17.112Z,2.80
2018-10-03T03:15:46.030Z,3.47
2018-10-03T03:18:13.892Z,2.83
2018-10-03T03:20:41.786Z,2.80
2018-10-03T03:23:09.620Z,3.00
2018-10-03T03:25:37.497Z,2.57
2018-10-03T03:28:05.405Z,3.00
2018-10-03T03:30:33.320Z,2.87
2018-10-03T03:33:01.225Z,2.87
2018-10-03T03:35:30.076Z,3.23
2018-10-03T03:37:58.021Z,2.10
2018-10-03T03:40:25.904Z,3.57
2018-10-03T03:42:53.823Z,3.17
2018-10-03T03:45:21.736Z,3.70
2018-10-03T03:47:49.609Z,2.97
2018-10-03T03:50:17.472Z,2.80
2018-10-03T03:52:45.317Z,3.90
2018-10-03T03:55:13.249Z,2.67
2018-10-03T03:57:41.118Z,3.03
2018-10-03T04:00:09.020Z,3.07
2018-10-03T04:02:36.922Z,4.10
2018-10-03T04:05:04.772Z,3.50
2018-10-03T04:07:33.718Z,3.30
2018-10-03T04:10:01.699Z,2.60
2018-10-03T04:12:29.577Z,2.13
2018-10-03T04:14:57.534Z,5.50
2018-10-03T04:17:25.490Z,3.60
2018-10-03T04:19:53.461Z,3.30
2018-10-03T04:22:21.413Z,2.83
2018-10-03T04:24:49.245Z,3.47
2018-10-03T04:27:17.132Z,3.33
2018-10-03T04:29:44.978Z,2.90
2018-10-03T04:32:12.882Z,2.90
2018-10-03T04:34:40.770Z,3.00
2018-10-03T04:37:08.705Z,3.30
2018-10-03T04:39:36.613Z,2.30
2018-10-03T04:42:04.596Z,3.90
2018-10-03T04:44:32.498Z,3.33
2018-10-03T04:47:00.360Z,3.07
2018-10-03T04:49:28.229Z,2.73
2018-10-03T04:51:56.126Z,2.80
2018-10-03T04:54:23.970Z,3.00
2018-10-03T04:56:51.843Z,2.70
2018-10-03T04:59:19.754Z,3.63
2018-10-03T05:01:47.692Z,2.77
2018-10-03T05:04:15.555Z,2.87
2018-10-03T05:06:43.412Z,3.27
2018-10-03T05:09:11.294Z,3.17
2018-10-03T05:11:39.097Z,3.17
2018-10-03T05:14:06.972Z,2.83
2018-10-03T05:16:34.896Z,2.80
2018-10-03T05:19:02.765Z,2.67
2018-10-03T05:21:30.628Z,3.00
2018-10-03T05:23:58.572Z,2.80
2018-10-03T05:26:27.474Z,2.73
2018-10-03T05:28:55.328Z,2.90
2018-10-03T05:31:23.199Z,3.47
2018-10-03T05:33:51.052Z,2.80
2018-10-03T05:36:19.993Z,2.83
2018-10-03T05:38:47.925Z,2.60
2018-10-03T05:41:15.821Z,2.50
2018-10-03T05:43:43.765Z,2.63
2018-10-03T05:46:11.902Z,2.13
2018-10-03T05:48:39.799Z,3.17
2018-10-03T05:51:07.628Z,3.03
2018-10-03T05:53:35.536Z,3.13
2018-10-03T05:56:03.400Z,2.23
2018-10-03T05:58:31.282Z,2.70
2018-10-03T06:00:59.124Z,2.77
2018-10-03T06:03:26.990Z,3.90
2018-10-03T06:05:54.861Z,2.60
2018-10-03T06:08:22.789Z,2.50
2018-10-03T06:10:50.668Z,2.83
2018-10-03T06:13:18.568Z,3.30
2018-10-03T06:15:46.400Z,3.03
2018-10-03T06:18:14.305Z,3.60
2018-10-03T06:20:42.141Z,3.03
2018-10-03T06:23:10.068Z,3.43
2018-10-03T06:25:37.918Z,2.80
2018-10-03T06:28:05.864Z,3.33
2018-10-03T06:30:33.736Z,2.47
2018-10-03T06:33:01.598Z,2.83
2018-10-03T06:35:29.543Z,2.60
2018-10-03T06:37:57.416Z,2.53
2018-10-03T06:40:25.416Z,2.80
2018-10-03T06:42:53.293Z,2.43
2018-10-03T06:45:21.266Z,2.90
2018-10-03T06:47:49.130Z,3.40
2018-10-03T06:50:16.964Z,2.47
2018-10-03T06:52:44.842Z,2.50
2018-10-03T06:55:12.746Z,2.63
2018-10-03T06:57:40.694Z,3.27
2018-10-03T07:00:08.610Z,2.60
2018-10-03T07:02:36.685Z,3.20
2018-10-03T07:05:04.678Z,3.40
2018-10-03T07:07:32.616Z,4.20
2018-10-03T07:10:00.662Z,2.93
2018-10-03T07:12:28.659Z,2.37
2018-10-03T07:14:56.563Z,2.93
2018-10-03T07:17:24.486Z,2.40
2018-10-03T07:19:52.396Z,2.90
2018-10-03T07:22:20.269Z,2.73
2018-10-03T07:24:48.141Z,2.87
2018-10-03T07:27:15.992Z,2.70
2018-10-03T07:29:43.860Z,3.43
2018-10-03T07:32:11.730Z,2.20
2018-10-03T07:34:39.625Z,3.03
2018-10-03T07:37:07.445Z,3.53
2018-10-03T07:39:35.321Z,2.60
2018-10-03T07:42:03.253Z,2.80
2018-10-03T07:44:31.188Z,2.27
2018-10-03T07:46:59.142Z,2.33
2018-10-03T07:49:27.006Z,2.97
2018-10-03T07:51:54.869Z,2.80
2018-10-03T07:54:22.741Z,1.97
2018-10-03T07:56:50.641Z,2.90
2018-10-03T07:59:18.513Z,2.50
2018-10-03T08:01:46.493Z,2.50
2018-10-03T08:04:14.447Z,2.83
2018-10-03T08:06:42.289Z,2.73
2018-10-03T08:09:10.958Z,3.30
2018-10-03T08:11:38.868Z,2.30
2018-10-03T08:14:06.741Z,3.23
2018-10-03T08:16:34.722Z,2.60
2018-10-03T08:19:02.692Z,2.20
2018-10-03T08:21:30.561Z,3.37
2018-10-03T08:23:58.498Z,2.70
2018-10-03T08:26:26.336Z,3.00
2018-10-03T08:28:54.199Z,2.43
2018-10-03T08:31:22.056Z,2.73
2018-10-03T08:33:49.940Z,2.83
2018-10-03T08:36:17.860Z,2.00
2018-10-03T08:38:46.784Z,2.17
2018-10-03T08:41:14.617Z,3.07
2018-10-03T08:43:45.854Z,2.70
2018-10-03T08:46:13.777Z,2.23
2018-10-03T08:48:41.707Z,2.53
2018-10-03T08:51:09.615Z,3.77
2018-10-03T08:53:37.581Z,1.93
2018-10-03T08:56:05.465Z,1.90
2018-10-03T08:58:33.429Z,2.50
2018-10-03T09:01:01.255Z,1.90
2018-10-03T09:03:29.147Z,2.23
2018-10-03T09:05:58.094Z,2.00
2018-10-03T09:08:25.981Z,2.40
2018-10-03T09:10:53.929Z,2.13
2018-10-03T09:13:21.864Z,3.40
2018-10-03T09:15:49.742Z,2.37
2018-10-03T09:18:17.572Z,2.10
2018-10-03T09:20:45.477Z,2.30
2018-10-03T09:23:13.400Z,1.80
2018-10-03T09:25:41.255Z,2.87
2018-10-03T09:28:09.215Z,2.33
2018-10-03T09:30:38.008Z,2.60
2018-10-03T09:33:06.965Z,2.27
2018-10-03T09:35:34.982Z,2.73
2018-10-03T09:38:02.872Z,1.90
2018-10-03T09:40:30.745Z,2.30
2018-10-03T09:42:58.642Z,2.40
2018-10-03T09:45:26.778Z,2.20
2018-10-03T09:47:54.617Z,1.90
2018-10-03T09:50:22.834Z,2.83
2018-10-03T09:52:50.708Z,2.07
2018-10-03T09:55:19.961Z,1.93
2018-10-03T09:57:47.881Z,1.97
2018-10-03T10:00:20.047Z,2.40
2018-10-03T10:02:47.889Z,2.10
2018-10-03T10:05:15.724Z,2.30
2018-10-03T10:07:43.659Z,2.20
2018-10-03T10:10:11.539Z,3.30
2018-10-03T10:12:39.463Z,1.97
2018-10-03T10:15:07.200Z,1.90
2018-10-03T10:17:35.069Z,2.33
2018-10-03T10:20:03.127Z,2.07
2018-10-03T10:22:31.080Z,2.33
2018-10-03T10:24:58.992Z,2.20
2018-10-03T10:27:26.894Z,2.17
2018-10-03T10:29:54.813Z,2.37
2018-10-03T10:32:23.236Z,2.00
2018-10-03T10:34:51.097Z,2.83
2018-10-03T10:37:18.976Z,1.83
2018-10-03T10:39:46.829Z,2.00
2018-10-03T10:42:14.709Z,2.87
2018-10-03T10:44:42.643Z,2.00
2018-10-03T10:47:10.518Z,3.03
2018-10-03T10:49:38.433Z,2.30
2018-10-03T10:54:33.410Z,2.10
2018-10-03T10:57:01.372Z,1.70
2018-10-03T10:59:29.461Z,2.20
2018-10-03T11:01:57.297Z,1.90
2018-10-03T11:04:25.229Z,2.07
2018-10-03T11:06:53.146Z,2.67
2018-10-03T11:09:21.057Z,2.00
2018-10-03T11:11:49.002Z,2.10
2018-10-03T11:14:16.840Z,2.40
2018-10-03T11:16:44.746Z,2.50
2018-10-03T11:19:12.559Z,2.67
2018-10-03T11:21:40.536Z,2.10
2018-10-03T11:24:08.454Z,2.20
2018-10-03T11:26:36.292Z,2.27
2018-10-03T11:29:04.121Z,2.67
2018-10-03T11:31:32.278Z,2.43
2018-10-03T11:34:00.221Z,2.60
2018-10-03T11:36:28.077Z,1.93
2018-10-03T11:38:55.932Z,1.93
2018-10-03T11:41:23.929Z,1.87
2018-10-03T11:43:51.880Z,2.03
2018-10-03T11:46:19.753Z,2.20
2018-10-03T11:48:47.585Z,2.10
2018-10-03T11:51:15.481Z,2.53
2018-10-03T11:53:43.386Z,2.17
2018-10-03T11:56:11.341Z,2.10
2018-10-03T11:58:39.253Z,2.20
2018-10-03T12:01:07.234Z,2.47
2018-10-03T12:03:35.200Z,2.23
2018-10-03T12:06:03.054Z,2.30
2018-10-03T12:08:30.977Z,2.10
2018-10-03T12:10:58.885Z,1.60
2018-10-03T12:13:26.744Z,1.77
2018-10-03T12:15:54.672Z,2.23
2018-10-03T12:18:22.475Z,1.90
2018-10-03T12:20:50.369Z,1.80
2018-10-03T12:23:18.302Z,1.80
2018-10-03T12:25:46.202Z,1.73
2018-10-03T12:28:14.059Z,1.90
2018-10-03T12:30:41.916Z,1.70
2018-10-03T12:33:09.843Z,1.80
2018-10-03T12:35:37.710Z,1.90
2018-10-03T12:38:05.568Z,2.00
2018-10-03T12:40:33.493Z,2.40
2018-10-03T12:43:01.406Z,1.70
2018-10-03T12:45:29.524Z,2.37
2018-10-03T12:47:57.784Z,1.50
2018-10-03T12:50:26.001Z,1.80
2018-10-03T12:52:53.984Z,1.70
2018-10-03T12:55:23.324Z,1.93
2018-10-03T12:57:51.257Z,2.07
2018-10-03T13:00:19.068Z,1.70
2018-10-03T13:02:46.997Z,2.40
2018-10-03T13:05:14.878Z,1.87
2018-10-03T13:07:43.742Z,1.50
2018-10-03T13:10:11.589Z,1.97
2018-10-03T13:12:39.441Z,2.00
2018-10-03T13:15:07.327Z,2.20
2018-10-03T13:17:35.188Z,1.70
2018-10-03T13:20:03.110Z,2.43
2018-10-03T13:22:31.050Z,1.73
2018-10-03T13:24:58.930Z,1.43
2018-10-03T13:27:26.863Z,2.10
2018-10-03T13:29:54.778Z,2.20
2018-10-03T13:32:22.709Z,1.70
2018-10-03T13:34:50.637Z,1.30
2018-10-03T13:37:18.567Z,1.40
2018-10-03T13:39:46.441Z,1.93
2018-10-03T13:42:14.313Z,1.43
2018-10-03T13:44:42.305Z,1.30
2018-10-03T13:47:10.196Z,1.30
2018-10-03T13:49:38.072Z,1.50
2018-10-03T13:52:07.206Z,1.80
2018-10-03T13:54:35.073Z,1.60
2018-10-03T13:57:03.139Z,1.50
2018-10-03T13:59:31.014Z,1.90
2018-10-03T14:01:59.882Z,1.90
2018-10-03T14:04:27.723Z,1.53
2018-10-03T14:06:55.662Z,1.50
2018-10-03T14:09:23.585Z,1.50
2018-10-03T14:11:52.469Z,1.70
2018-10-03T14:14:20.340Z,1.83
2018-10-03T14:16:48.188Z,1.90
2018-10-03T14:19:16.052Z,1.83
2018-10-03T14:21:43.964Z,1.80
2018-10-03T14:24:11.821Z,1.70
2018-10-03T14:26:39.673Z,1.80
2018-10-03T14:29:08.626Z,1.53
2018-10-03T14:31:36.562Z,1.70
2018-10-03T14:34:04.422Z,2.00
2018-10-03T14:36:33.268Z,1.20
2018-10-03T14:39:01.161Z,1.43
2018-10-03T14:41:29.051Z,1.90
2018-10-03T14:43:56.885Z,1.70
2018-10-03T14:46:24.782Z,1.53
2018-10-03T14:48:52.648Z,1.63
2018-10-03T14:51:20.485Z,1.60
2018-10-03T14:53:48.378Z,1.60
2018-10-03T14:56:16.218Z,1.70
2018-10-03T14:58:44.212Z,1.80
2018-10-03T15:01:12.060Z,1.60
2018-10-03T15:03:39.888Z,1.40
2018-10-03T15:06:07.795Z,1.57
2018-10-03T15:08:36.640Z,1.83
2018-10-03T15:11:04.555Z,1.73
2018-10-03T15:13:32.392Z,1.90
2018-10-03T15:16:00.302Z,2.00
2018-10-03T15:18:28.157Z,1.80
2018-10-03T15:20:55.996Z,2.10
2018-10-03T15:23:23.884Z,1.73
2018-10-03T15:25:51.736Z,1.53
2018-10-03T15:28:19.568Z,1.93
2018-10-03T15:30:47.493Z,2.00
2018-10-03T15:33:15.342Z,1.97
2018-10-03T15:35:43.253Z,1.90
2018-10-03T15:38:11.182Z,2.10
2018-10-03T15:40:39.045Z,1.60
2018-10-03T15:43:07.089Z,1.90
2018-10-03T15:45:34.958Z,1.90
2018-10-03T15:48:02.880Z,2.30
2018-10-03T15:50:30.735Z,2.17
2018-10-03T15:52:59.712Z,2.30
2018-10-03T15:55:27.674Z,1.83
2018-10-03T15:57:55.736Z,2.37
2018-10-03T16:00:23.628Z,2.50
2018-10-03T16:02:51.484Z,1.80
2018-10-03T16:05:20.356Z,2.00
2018-10-03T16:07:48.204Z,2.00
2018-10-03T16:10:16.153Z,1.70
2018-10-03T16:12:44.093Z,1.60
2018-10-03T16:15:11.927Z,1.40
2018-10-03T16:17:39.752Z,2.00
2018-10-03T16:20:07.758Z,1.93
2018-10-03T16:22:35.637Z,2.43
2018-10-03T16:25:03.533Z,2.40
2018-10-03T16:27:31.492Z,3.00
2018-10-03T16:29:59.357Z,2.27
2018-10-03T16:32:27.374Z,2.30
2018-10-03T16:34:55.073Z,2.37
2018-10-03T16:37:22.960Z,2.73
2018-10-03T16:39:50.789Z,2.30
2018-10-03T16:42:18.680Z,2.70
2018-10-03T16:44:46.553Z,2.77
2018-10-03T16:47:14.449Z,2.90
2018-10-03T16:49:42.256Z,2.90
2018-10-03T16:52:10.128Z,2.10
2018-10-03T16:54:38.012Z,2.23
2018-10-03T16:57:05.882Z,2.17
2018-10-03T16:59:33.753Z,2.50
2018-10-03T17:02:01.684Z,1.93
2018-10-03T17:04:29.568Z,2.57
2018-10-03T17:06:57.486Z,2.30
2018-10-03T17:09:25.469Z,2.97
2018-10-03T17:11:53.389Z,2.30
2018-10-03T17:14:24.085Z,2.30
2018-10-03T17:16:52.589Z,2.30
2018-10-03T17:19:20.545Z,2.00
2018-10-03T17:21:49.408Z,2.57
2018-10-03T17:24:17.396Z,2.10
2018-10-03T17:26:45.561Z,1.80
2018-10-03T17:29:13.540Z,2.17
2018-10-03T17:31:42.457Z,2.57
2018-10-03T17:34:10.383Z,2.70
2018-10-03T17:36:38.264Z,2.50
2018-10-03T17:39:06.328Z,2.20
2018-10-03T17:41:34.314Z,2.80
2018-10-03T17:44:02.208Z,2.20
2018-10-03T17:46:30.186Z,2.30
2018-10-03T17:48:58.105Z,2.30
2018-10-03T17:51:26.028Z,2.40
2018-10-03T17:53:53.913Z,2.20
2018-10-03T17:56:21.837Z,2.43
2018-10-03T17:58:50.732Z,2.13
2018-10-03T18:01:18.600Z,2.27
2018-10-03T18:03:46.526Z,2.20
2018-10-03T18:06:14.498Z,2.40
2018-10-03T18:08:42.512Z,1.90
2018-10-03T18:11:10.445Z,1.90
2018-10-03T18:13:38.473Z,2.00
2018-10-03T18:16:06.428Z,1.80
2018-10-03T18:18:34.294Z,1.80
2018-10-03T18:21:02.157Z,2.05
2018-10-03T18:23:30.021Z,1.90
2018-10-03T18:25:57.929Z,1.90
2018-10-03T18:28:25.761Z,2.17
2018-10-03T18:30:53.665Z,1.83
2018-10-03T18:33:21.549Z,2.50
2018-10-03T18:35:49.534Z,2.23
2018-10-03T18:38:17.391Z,2.47
2018-10-03T18:40:45.309Z,2.20
2018-10-03T18:43:13.157Z,2.50
2018-10-03T18:45:41.050Z,1.97
2018-10-03T18:48:08.937Z,2.27
2018-10-03T18:50:36.926Z,2.10
2018-10-03T18:53:04.854Z,2.37
2018-10-03T18:55:32.982Z,1.90
2018-10-03T18:58:00.888Z,2.33
2018-10-03T19:00:28.753Z,1.73
2018-10-03T19:02:56.606Z,1.90
2018-10-03T19:05:24.509Z,2.23
2018-10-03T19:07:52.347Z,2.27
2018-10-03T19:10:20.257Z,2.33
2018-10-03T19:12:48.157Z,2.37
2018-10-03T19:15:16.085Z,2.63
2018-10-03T19:17:43.993Z,1.93
2018-10-03T19:20:11.941Z,2.33
2018-10-03T19:22:39.867Z,2.57
2018-10-03T19:25:07.817Z,2.00
2018-10-03T19:27:35.757Z,2.50
2018-10-03T19:30:03.584Z,2.23
2018-10-03T19:32:31.508Z,2.07
2018-10-03T19:34:59.421Z,2.30
2018-10-03T19:37:28.272Z,1.73
2018-10-03T19:39:56.211Z,2.40
2018-10-03T19:42:24.154Z,2.30
2018-10-03T19:44:52.114Z,2.40
2018-10-03T19:47:21.004Z,2.27
2018-10-03T19:49:48.889Z,2.07
2018-10-03T19:52:16.764Z,2.57
2018-10-03T19:54:44.712Z,2.80
2018-10-03T19:57:12.885Z,2.20
2018-10-03T19:59:40.844Z,3.43
2018-10-03T20:02:08.843Z,2.17
2018-10-03T20:04:36.736Z,2.10
2018-10-03T20:07:04.810Z,2.20
2018-10-03T20:09:32.728Z,2.23
2018-10-03T20:12:00.791Z,2.23
2018-10-03T20:14:28.627Z,1.70
2018-10-03T20:16:56.550Z,1.87
2018-10-03T20:19:24.475Z,2.00
2018-10-03T20:21:52.429Z,2.10
2018-10-03T20:24:20.266Z,1.70
2018-10-03T20:26:48.201Z,2.00
2018-10-03T20:29:16.049Z,2.20
2018-10-03T20:31:43.893Z,2.20
2018-10-03T20:34:11.780Z,1.80
2018-10-03T20:36:39.675Z,2.27
2018-10-03T20:39:07.858Z,1.70
2018-10-03T20:41:35.811Z,2.50
2018-10-03T20:44:04.041Z,1.80
2018-10-03T20:46:31.930Z,2.17
2018-10-03T20:48:59.796Z,1.70
2018-10-03T20:51:27.650Z,2.00
2018-10-03T20:53:55.513Z,1.57
2018-10-03T20:56:23.423Z,2.00
2018-10-03T20:58:51.291Z,2.60
2018-10-03T21:01:19.228Z,1.50
2018-10-03T21:03:47.084Z,1.87
2018-10-03T21:06:15.961Z,1.90
2018-10-03T21:08:43.983Z,1.80
2018-10-03T21:11:11.817Z,2.10
2018-10-03T21:13:39.652Z,2.40
2018-10-03T21:16:07.585Z,2.00
2018-10-03T21:18:35.442Z,1.70
2018-10-03T21:21:03.300Z,1.87
2018-10-03T21:23:31.157Z,1.97
2018-10-03T21:25:59.057Z,1.80
2018-10-03T21:28:26.903Z,2.40
2018-10-03T21:30:54.784Z,1.90
2018-10-03T21:33:22.653Z,1.67
2018-10-03T21:35:50.517Z,1.73
2018-10-03T21:38:18.356Z,2.50
2018-10-03T21:40:46.245Z,2.23
2018-10-03T21:43:14.101Z,1.90
2018-10-03T21:45:41.984Z,2.27
2018-10-03T21:48:09.858Z,2.17
2018-10-03T21:50:37.685Z,2.10
2018-10-03T21:53:05.563Z,2.00
2018-10-03T21:55:34.506Z,2.30
2018-10-03T21:58:02.380Z,2.13
2018-10-03T22:00:35.878Z,1.90
2018-10-03T22:03:04.020Z,2.23
2018-10-03T22:05:31.876Z,2.27
2018-10-03T22:07:59.816Z,2.70
2018-10-03T22:10:27.672Z,2.07
2018-10-03T22:12:55.557Z,2.50
2018-10-03T22:15:23.393Z,1.87
2018-10-03T22:17:51.330Z,2.10
2018-10-03T22:20:19.272Z,1.90
2018-10-03T22:22:47.184Z,1.90
2018-10-03T22:25:15.032Z,2.40
2018-10-03T22:27:43.011Z,2.40
2018-10-03T22:30:10.948Z,2.10
2018-10-03T22:32:38.805Z,2.00
2018-10-03T22:35:06.708Z,1.70
2018-10-03T22:37:34.652Z,1.90
2018-10-03T22:40:02.489Z,1.80
2018-10-03T22:42:30.393Z,1.97
2018-10-03T22:44:58.204Z,2.00
2018-10-03T22:47:27.117Z,1.80
2018-10-03T22:49:55.225Z,2.20
2018-10-03T22:52:23.242Z,1.90
2018-10-03T22:54:51.098Z,1.83
2018-10-03T22:57:19.086Z,2.00
2018-10-03T22:59:46.990Z,1.90
2018-10-03T23:02:14.851Z,2.20
2018-10-03T23:04:42.739Z,2.27
2018-10-03T23:07:10.677Z,2.07
2018-10-03T23:09:38.603Z,2.10
2018-10-03T23:12:07.024Z,1.70
2018-10-03T23:14:34.908Z,2.10
2018-10-03T23:17:02.736Z,1.90
2018-10-03T23:19:30.576Z,2.10
2018-10-03T23:21:58.513Z,1.90
2018-10-03T23:24:26.360Z,2.20
2018-10-03T23:26:54.271Z,2.13
2018-10-03T23:29:22.205Z,2.03
2018-10-03T23:31:50.032Z,1.93
2018-10-03T23:34:17.932Z,1.90
2018-10-03T23:36:45.812Z,2.00
2018-10-03T23:39:13.661Z,2.00
2018-10-03T23:41:41.761Z,2.20
2018-10-03T23:44:10.106Z,1.83
2018-10-03T23:46:38.001Z,1.90
2018-10-03T23:49:05.865Z,1.90
2018-10-03T23:51:33.761Z,2.27
2018-10-03T23:54:01.701Z,2.57
2018-10-03T23:56:29.605Z,2.20
2018-10-03T23:58:57.516Z,1.67
